Time;durP1;ratioP1;P1;durP2;ratioP2;P2;SDS_P1;SDS_P2;PMS_P1;PMS_P2;Temp;Humidity;BMP_temperature;BMP_pressure;BME280_temperature;BME280_humidity;BME280_pressure;Samples;Min_cycle;Max_cycle;Signal;HPM_P1;HPM_P2
2023/09/27 00:00:31;;;;;;;30.20;13.40;;;;;;;15.48;94.98;100986.31;109794;1284;22213;-58
2023/09/27 00:03:22;;;;;;;30.80;14.70;;;;;;;15.43;95.15;100985.16;109805;1284;22178;-58
2023/09/27 00:05:53;;;;;;;30.70;14.10;;;;;;;15.38;95.21;100983.20;109804;1284;22333;-56
2023/09/27 00:08:24;;;;;;;28.30;13.00;;;;;;;15.37;95.27;100985.14;109815;1282;22202;-57
2023/09/27 00:10:55;;;;;;;31.60;13.80;;;;;;;15.35;96.40;100986.65;109834;1283;22326;-59
2023/09/27 00:13:26;;;;;;;29.30;12.80;;;;;;;15.32;96.02;100986.98;109806;1284;23167;-58
2023/09/27 00:15:56;;;;;;;22.20;9.70;;;;;;;15.26;95.74;100990.55;109778;1284;22179;-55
2023/09/27 00:18:27;;;;;;;19.00;7.00;;;;;;;15.21;95.97;100993.75;109829;1284;22251;-57
2023/09/27 00:20:59;;;;;;;19.10;7.30;;;;;;;15.16;96.11;100993.75;109779;1284;22191;-58
2023/09/27 00:23:29;;;;;;;20.60;8.90;;;;;;;15.11;95.93;100990.41;109809;1280;22372;-57
2023/09/27 00:26:00;;;;;;;16.30;6.90;;;;;;;15.09;95.77;100987.92;109792;1283;22157;-57
2023/09/27 00:28:31;;;;;;;18.40;6.50;;;;;;;15.04;95.59;100991.17;109808;1284;22128;-57
2023/09/27 00:31:04;;;;;;;14.60;6.40;;;;;;;14.99;95.69;100988.56;109807;1284;22330;-57
2023/09/27 00:33:35;;;;;;;16.20;6.90;;;;;;;14.97;95.49;100986.33;109800;1278;22424;-55
2023/09/27 00:36:06;;;;;;;17.70;6.50;;;;;;;14.93;95.25;100983.16;109781;1276;23286;-57
2023/09/27 00:38:37;;;;;;;19.20;7.20;;;;;;;14.89;95.14;100982.70;109781;1277;22141;-57
2023/09/27 00:41:09;;;;;;;18.40;7.80;;;;;;;14.83;95.18;100979.56;109796;1277;22219;-57
2023/09/27 00:43:40;;;;;;;18.70;7.70;;;;;;;14.80;95.16;100977.58;109810;1277;22272;-58
2023/09/27 00:46:15;;;;;;;20.70;7.70;;;;;;;14.80;95.15;100978.39;109799;1277;22693;-57
2023/09/27 00:48:46;;;;;;;20.30;8.50;;;;;;;14.79;95.02;100977.76;109804;1284;23810;-58
2023/09/27 00:51:18;;;;;;;19.50;7.90;;;;;;;14.77;94.94;100974.98;109823;1280;22149;-57
2023/09/27 00:53:50;;;;;;;22.00;10.30;;;;;;;14.74;94.86;100976.78;109777;1281;22180;-58
2023/09/27 00:56:22;;;;;;;23.90;10.50;;;;;;;14.68;94.78;100975.47;109796;1284;22616;-58
2023/09/27 00:58:53;;;;;;;26.40;11.30;;;;;;;14.63;94.80;100975.95;109663;1284;22347;-58
2023/09/27 01:01:26;;;;;;;26.80;12.00;;;;;;;14.59;94.96;100976.06;109819;1277;22218;-58
2023/09/27 01:03:58;;;;;;;27.10;12.60;;;;;;;14.57;94.71;100977.21;109816;1283;22321;-57
2023/09/27 01:06:29;;;;;;;23.80;11.10;;;;;;;14.51;94.52;100980.44;109781;1284;22207;-57
2023/09/27 01:09:00;;;;;;;26.40;13.10;;;;;;;14.47;94.64;100975.11;109795;1284;22297;-57
2023/09/27 01:11:31;;;;;;;27.50;11.40;;;;;;;14.43;94.55;100978.44;109797;1284;22170;-57
2023/09/27 01:14:02;;;;;;;31.20;13.30;;;;;;;14.39;94.40;100980.15;109827;1283;22183;-57
2023/09/27 01:16:34;;;;;;;27.40;13.00;;;;;;;14.35;94.35;100974.82;109803;1284;23108;-57
2023/09/27 01:19:05;;;;;;;29.20;12.50;;;;;;;14.28;94.37;100973.58;109791;1280;22211;-55
2023/09/27 01:21:36;;;;;;;28.20;12.50;;;;;;;14.24;94.48;100972.38;109812;1277;23144;-56
2023/09/27 01:24:08;;;;;;;30.80;12.40;;;;;;;14.21;94.30;100971.97;109813;1284;23387;-57
2023/09/27 01:26:40;;;;;;;28.40;12.90;;;;;;;14.16;94.33;100973.63;109789;1284;23203;-57
2023/09/27 01:29:11;;;;;;;24.90;10.60;;;;;;;14.12;94.33;100968.20;109809;1284;22224;-57
2023/09/27 01:31:41;;;;;;;25.10;11.20;;;;;;;14.09;94.20;100965.02;109807;1284;22183;-57
2023/09/27 01:34:12;;;;;;;23.40;10.10;;;;;;;14.06;94.37;100964.80;109775;1284;22214;-58
2023/09/27 01:36:43;;;;;;;23.50;10.20;;;;;;;14.06;94.34;100967.95;109782;1284;22173;-57
2023/09/27 01:39:14;;;;;;;23.90;9.70;;;;;;;14.05;94.53;100967.17;109804;1276;22360;-56
2023/09/27 01:41:45;;;;;;;31.20;8.90;;;;;;;14.02;94.47;100968.48;109799;1276;22992;-58
2023/09/27 01:44:16;;;;;;;19.10;7.80;;;;;;;13.98;94.58;100969.13;109810;1284;23057;-58
2023/09/27 01:46:47;;;;;;;24.80;8.70;;;;;;;13.95;94.73;100969.71;109800;1283;22304;-57
2023/09/27 01:49:19;;;;;;;20.00;7.30;;;;;;;13.98;94.97;100971.53;109803;1284;23054;-58
2023/09/27 01:51:50;;;;;;;17.30;7.80;;;;;;;13.99;95.34;100972.23;109807;1277;22253;-58
2023/09/27 01:54:21;;;;;;;17.80;7.10;;;;;;;14.00;95.40;100968.17;109808;1277;22339;-57
2023/09/27 01:56:52;;;;;;;15.70;6.20;;;;;;;14.01;95.65;100968.80;109798;1284;22207;-57
2023/09/27 01:59:22;;;;;;;14.90;6.00;;;;;;;13.99;95.74;100963.20;109796;1284;23522;-57
2023/09/27 02:01:53;;;;;;;17.10;5.70;;;;;;;13.97;95.74;100964.34;109806;1280;23474;-58
2023/09/27 02:04:24;;;;;;;16.70;5.60;;;;;;;13.95;95.70;100960.36;109829;1280;22144;-57
2023/09/27 02:06:55;;;;;;;14.40;5.60;;;;;;;13.92;95.80;100961.98;109803;1284;22349;-58
2023/09/27 02:09:26;;;;;;;15.70;6.00;;;;;;;13.87;95.80;100959.52;109792;1284;22221;-56
2023/09/27 02:11:57;;;;;;;15.90;6.10;;;;;;;13.83;96.04;100962.81;109815;1284;23149;-57
2023/09/27 02:14:28;;;;;;;15.20;6.30;;;;;;;13.79;96.01;100960.91;109786;1277;22224;-58
2023/09/27 02:16:59;;;;;;;15.50;6.00;;;;;;;13.76;95.98;100964.93;109787;1276;22178;-56
2023/09/27 02:19:30;;;;;;;15.60;6.20;;;;;;;13.73;95.96;100961.06;109801;1284;22145;-56
2023/09/27 02:22:01;;;;;;;17.60;6.50;;;;;;;13.71;95.89;100969.55;109793;1276;22315;-55
2023/09/27 02:24:32;;;;;;;20.80;7.40;;;;;;;13.68;95.97;100964.48;109786;1284;22255;-58
2023/09/27 02:27:03;;;;;;;19.60;8.30;;;;;;;13.65;96.08;100968.63;109799;1284;22307;-57
2023/09/27 02:29:35;;;;;;;19.30;7.40;;;;;;;13.65;96.15;100969.13;109795;1284;22820;-55
2023/09/27 02:32:06;;;;;;;22.20;8.40;;;;;;;13.66;96.35;100969.16;109800;1276;22951;-56
2023/09/27 02:34:37;;;;;;;22.60;8.20;;;;;;;13.67;96.65;100967.83;109811;1284;22492;-56
2023/09/27 02:37:07;;;;;;;18.20;7.60;;;;;;;13.68;96.86;100969.64;109815;1277;22260;-58
2023/09/27 02:39:39;;;;;;;19.90;8.90;;;;;;;13.68;96.98;100965.58;109801;1284;22247;-56
2023/09/27 02:42:10;;;;;;;18.70;8.60;;;;;;;13.67;96.88;100969.73;109816;1277;22163;-56
2023/09/27 02:44:41;;;;;;;18.80;7.80;;;;;;;13.68;96.91;100971.13;109817;1276;22219;-57
2023/09/27 02:47:12;;;;;;;19.20;7.80;;;;;;;13.66;97.03;100972.36;109795;1280;22198;-57
2023/09/27 02:49:43;;;;;;;19.00;7.10;;;;;;;13.65;96.99;100972.28;109799;1280;22298;-57
2023/09/27 02:52:14;;;;;;;13.70;5.70;;;;;;;13.64;96.99;100973.05;109819;1284;22348;-56
2023/09/27 02:54:45;;;;;;;14.70;5.60;;;;;;;13.62;97.02;100976.17;109797;1284;22985;-58
2023/09/27 02:57:16;;;;;;;15.70;6.10;;;;;;;13.60;96.92;100974.70;109769;1284;22333;-57
2023/09/27 02:59:47;;;;;;;20.00;8.70;;;;;;;13.57;97.00;100974.70;109820;1284;22372;-57
2023/09/27 03:02:20;;;;;;;18.00;7.80;;;;;;;13.56;96.92;100977.17;109780;1284;22170;-55
2023/09/27 03:04:51;;;;;;;17.70;7.10;;;;;;;13.51;96.80;100973.91;109798;1284;22147;-57
2023/09/27 03:07:23;;;;;;;17.80;7.20;;;;;;;13.45;96.71;100973.97;109782;1277;22134;-57
2023/09/27 03:09:54;;;;;;;15.90;6.90;;;;;;;13.40;96.71;100975.85;109788;1276;22275;-58
2023/09/27 03:12:25;;;;;;;16.00;6.90;;;;;;;13.35;96.63;100975.71;109806;1284;22408;-58
2023/09/27 03:14:57;;;;;;;16.40;6.70;;;;;;;13.30;96.61;100972.23;109819;1284;22348;-57
2023/09/27 03:17:27;;;;;;;17.30;6.30;;;;;;;13.26;96.64;100971.09;109787;1280;22176;-57
2023/09/27 03:19:58;;;;;;;18.60;7.40;;;;;;;13.23;96.63;100967.61;109810;1276;22439;-57
2023/09/27 03:22:29;;;;;;;18.30;8.00;;;;;;;13.21;96.60;100968.69;109813;1277;22227;-56
2023/09/27 03:25:00;;;;;;;15.40;6.70;;;;;;;13.19;96.65;100967.80;109799;1284;22156;-57
2023/09/27 03:27:31;;;;;;;17.30;7.60;;;;;;;13.17;96.75;100967.45;109800;1280;22173;-57
2023/09/27 03:30:02;;;;;;;17.20;7.20;;;;;;;13.16;97.00;100965.43;109807;1284;22343;-55
2023/09/27 03:32:33;;;;;;;16.90;7.90;;;;;;;13.15;97.24;100969.80;109795;1284;22166;-57
2023/09/27 03:35:07;;;;;;;15.50;7.00;;;;;;;13.14;97.21;100970.40;109803;1283;23276;-56
2023/09/27 03:37:37;;;;;;;14.60;6.10;;;;;;;13.14;97.21;100968.77;109796;1277;23000;-57
2023/09/27 03:40:13;;;;;;;15.30;6.80;;;;;;;13.13;97.12;100966.49;109800;1276;23095;-56
2023/09/27 03:42:46;;;;;;;18.60;6.80;;;;;;;13.11;97.27;100969.46;109806;1284;22199;-58
2023/09/27 03:45:17;;;;;;;15.20;6.60;;;;;;;13.10;97.53;100972.65;109821;1284;22183;-57
2023/09/27 03:47:48;;;;;;;16.80;6.40;;;;;;;13.07;97.31;100971.88;109744;1276;22213;-56
2023/09/27 03:50:20;;;;;;;15.80;6.70;;;;;;;13.06;97.28;100974.77;109766;1276;22154;-57
2023/09/27 03:52:51;;;;;;;15.70;6.90;;;;;;;13.05;97.30;100975.70;109801;1276;22211;-57
2023/09/27 03:55:22;;;;;;;17.00;7.10;;;;;;;13.05;97.41;100975.71;109786;1277;22346;-57
2023/09/27 03:57:53;;;;;;;17.80;7.10;;;;;;;13.05;97.62;100974.83;109770;1277;22287;-58
2023/09/27 04:00:24;;;;;;;23.50;9.30;;;;;;;13.05;97.87;100971.90;109783;1280;22145;-57
2023/09/27 04:02:55;;;;;;;23.30;9.10;;;;;;;13.07;98.18;100973.41;109784;1276;22169;-56
2023/09/27 04:05:29;;;;;;;24.00;10.60;;;;;;;13.08;98.49;100971.20;109719;1276;22226;-57
2023/09/27 04:08:01;;;;;;;27.00;11.00;;;;;;;13.09;98.78;100970.66;109753;1276;22330;-59
2023/09/27 04:10:32;;;;;;;25.90;11.40;;;;;;;13.10;98.83;100968.98;109721;1276;22367;-64
2023/09/27 04:13:04;;;;;;;25.70;10.80;;;;;;;13.11;98.97;100972.11;109750;1276;22240;-60
2023/09/27 04:15:36;;;;;;;21.20;10.40;;;;;;;13.11;99.08;100971.55;109686;1276;22413;-59
2023/09/27 04:18:08;;;;;;;23.00;9.00;;;;;;;13.10;99.04;100971.09;109721;1276;22907;-59
2023/09/27 04:20:39;;;;;;;20.70;10.00;;;;;;;13.09;98.93;100972.44;109759;1284;22159;-59
2023/09/27 04:23:09;;;;;;;23.20;10.20;;;;;;;13.09;99.19;100972.84;109722;1276;22169;-61
2023/09/27 04:25:43;;;;;;;28.40;11.30;;;;;;;13.09;99.11;100967.80;109784;1276;22196;-61
2023/09/27 04:28:14;;;;;;;26.50;11.40;;;;;;;13.08;99.07;100968.65;109734;1280;22325;-62
2023/09/27 04:30:45;;;;;;;28.00;10.60;;;;;;;13.07;99.17;100970.30;109728;1277;22334;-61
2023/09/27 04:33:16;;;;;;;23.90;11.30;;;;;;;13.07;99.47;100977.19;109790;1280;23197;-61
2023/09/27 04:35:48;;;;;;;23.50;11.50;;;;;;;13.09;99.68;100975.99;109747;1276;22290;-61
2023/09/27 04:38:19;;;;;;;23.90;10.60;;;;;;;13.10;99.65;100972.86;109739;1276;22517;-61
2023/09/27 04:40:51;;;;;;;23.20;11.60;;;;;;;13.10;99.84;100977.25;109714;1276;22352;-62
2023/09/27 04:43:22;;;;;;;23.90;10.00;;;;;;;13.10;99.87;100976.08;109733;1277;23279;-61
2023/09/27 04:45:53;;;;;;;24.20;11.00;;;;;;;13.10;99.71;100979.39;109750;1276;22427;-62
2023/09/27 04:48:24;;;;;;;25.40;11.20;;;;;;;13.08;99.72;100980.31;109777;1268;22901;-62
2023/09/27 04:50:57;;;;;;;26.00;10.90;;;;;;;13.08;99.78;100979.60;109788;1280;22259;-62
2023/09/27 04:53:28;;;;;;;24.90;12.10;;;;;;;13.08;99.90;100984.24;109788;1284;22268;-61
2023/09/27 04:55:59;;;;;;;25.50;12.10;;;;;;;13.09;99.86;100985.78;109779;1283;23564;-61
2023/09/27 04:58:30;;;;;;;28.50;12.10;;;;;;;13.08;99.95;100988.82;109766;1276;22530;-62
2023/09/27 05:01:01;;;;;;;26.50;12.70;;;;;;;13.08;99.97;100993.67;109767;1279;22420;-61
2023/09/27 05:03:32;;;;;;;26.70;11.80;;;;;;;13.07;99.96;100993.05;109769;1280;23110;-62
2023/09/27 05:06:03;;;;;;;28.60;12.70;;;;;;;13.07;99.96;100994.20;109772;1277;22915;-61
2023/09/27 05:08:34;;;;;;;29.90;12.00;;;;;;;13.05;100.00;100992.48;109808;1276;22156;-60
2023/09/27 05:11:05;;;;;;;25.10;11.80;;;;;;;13.05;100.00;100996.85;109790;1280;22813;-61
2023/09/27 05:13:36;;;;;;;22.50;10.50;;;;;;;13.06;100.00;100996.06;109803;1283;22278;-61
2023/09/27 05:16:07;;;;;;;26.60;11.10;;;;;;;13.06;100.00;100996.05;109784;1272;22189;-62
2023/09/27 05:18:38;;;;;;;24.90;11.20;;;;;;;13.06;100.00;101000.23;109776;1277;22196;-61
2023/09/27 05:21:08;;;;;;;25.70;11.00;;;;;;;13.06;100.00;101001.20;109785;1277;23084;-61
2023/09/27 05:23:39;;;;;;;25.90;10.70;;;;;;;13.06;100.00;100998.52;109819;1277;22245;-61
2023/09/27 05:26:11;;;;;;;29.00;13.00;;;;;;;13.08;100.00;100997.48;109777;1274;22223;-62
2023/09/27 05:28:42;;;;;;;27.00;13.00;;;;;;;13.10;100.00;101001.00;109806;1276;23377;-61
2023/09/27 05:31:13;;;;;;;26.40;11.30;;;;;;;13.11;100.00;101000.30;109801;1276;23302;-61
2023/09/27 05:33:44;;;;;;;24.70;11.30;;;;;;;13.14;100.00;101001.58;109810;1284;23294;-61
2023/09/27 05:36:15;;;;;;;23.20;10.70;;;;;;;13.17;100.00;101002.71;109791;1284;22176;-61
2023/09/27 05:38:46;;;;;;;23.90;11.30;;;;;;;13.21;100.00;101002.84;109785;1284;22181;-61
2023/09/27 05:41:18;;;;;;;22.90;10.50;;;;;;;13.23;100.00;101005.89;109770;1277;22346;-62
2023/09/27 05:43:48;;;;;;;31.10;12.50;;;;;;;13.28;100.00;101007.91;109792;1284;22253;-62
2023/09/27 05:46:19;;;;;;;24.50;11.30;;;;;;;13.32;100.00;101014.31;109775;1284;22250;-61
2023/09/27 05:48:50;;;;;;;20.90;9.90;;;;;;;13.37;100.00;101013.35;109817;1277;22871;-61
2023/09/27 05:51:21;;;;;;;20.80;10.20;;;;;;;13.43;100.00;101006.24;109777;1273;22335;-60
2023/09/27 05:53:52;;;;;;;19.80;9.90;;;;;;;13.48;100.00;101005.02;109811;1284;22256;-62
2023/09/27 05:56:24;;;;;;;25.50;11.10;;;;;;;13.53;100.00;101007.61;109785;1280;22199;-61
2023/09/27 05:58:55;;;;;;;26.10;10.90;;;;;;;13.59;100.00;101005.91;109802;1276;22199;-61
2023/09/27 06:01:26;;;;;;;26.40;11.70;;;;;;;13.65;100.00;101007.05;109775;1280;22178;-62
2023/09/27 06:03:57;;;;;;;27.10;12.20;;;;;;;13.72;100.00;101006.60;109773;1284;22229;-62
2023/09/27 06:06:29;;;;;;;28.90;13.30;;;;;;;13.79;100.00;101013.21;109815;1284;22958;-62
2023/09/27 06:09:00;;;;;;;32.10;15.90;;;;;;;13.87;100.00;101021.05;109809;1284;22330;-62
2023/09/27 06:11:32;;;;;;;32.30;15.00;;;;;;;13.94;100.00;101022.87;109811;1273;22150;-61
2023/09/27 06:14:09;;;;;;;28.30;14.40;;;;;;;14.03;100.00;101026.81;109794;1284;22205;-61
2023/09/27 06:16:44;;;;;;;33.80;15.80;;;;;;;14.12;100.00;101030.02;109792;1284;22140;-62
2023/09/27 06:19:16;;;;;;;34.60;17.70;;;;;;;14.21;100.00;101028.05;109797;1277;22167;-62
2023/09/27 06:21:47;;;;;;;38.30;18.20;;;;;;;14.31;100.00;101032.57;109763;1284;22571;-62
2023/09/27 06:24:19;;;;;;;37.40;19.00;;;;;;;14.39;100.00;101033.83;109807;1280;22236;-61
2023/09/27 06:26:50;;;;;;;40.90;20.00;;;;;;;14.48;100.00;101033.52;107133;1280;22559;-60
2023/09/27 06:29:21;;;;;;;41.50;20.90;;;;;;;14.59;100.00;101037.81;105484;1273;22573;-61
2023/09/27 06:31:53;;;;;;;39.10;21.60;;;;;;;14.70;100.00;101039.69;105592;1273;22538;-65
2023/09/27 06:34:24;;;;;;;36.60;20.20;;;;;;;14.79;100.00;101039.14;105512;1276;22549;-62
2023/09/27 06:36:56;;;;;;;43.40;20.30;;;;;;;14.89;100.00;101036.98;105597;1284;23950;-61
2023/09/27 06:39:27;;;;;;;35.30;20.70;;;;;;;15.00;100.00;101036.98;105413;1264;22564;-60
2023/09/27 06:41:58;;;;;;;45.20;25.10;;;;;;;15.09;100.00;101040.59;105574;1276;26540;-62
2023/09/27 06:44:32;;;;;;;41.90;23.40;;;;;;;15.19;100.00;101045.48;105469;1277;25199;-61
2023/09/27 06:47:04;;;;;;;40.70;22.30;;;;;;;15.29;100.00;101043.98;105603;1277;23952;-61
2023/09/27 06:49:36;;;;;;;40.90;20.30;;;;;;;15.40;100.00;101052.77;109801;1284;22193;-62
2023/09/27 06:52:07;;;;;;;41.00;20.90;;;;;;;15.52;100.00;101054.56;109799;1284;23439;-62
2023/09/27 06:54:37;;;;;;;44.80;22.70;;;;;;;15.63;100.00;101060.05;109792;1284;22229;-61
2023/09/27 06:57:08;;;;;;;42.10;21.20;;;;;;;15.74;100.00;101059.62;109779;1276;22210;-62
2023/09/27 06:59:39;;;;;;;43.80;21.40;;;;;;;15.85;100.00;101056.98;109786;1284;22357;-62
2023/09/27 07:02:11;;;;;;;42.70;20.00;;;;;;;15.97;100.00;101064.64;109819;1283;22167;-62
2023/09/27 07:04:42;;;;;;;37.10;17.70;;;;;;;16.07;100.00;101067.65;109799;1276;22155;-62
2023/09/27 07:07:13;;;;;;;34.60;18.00;;;;;;;16.15;100.00;101067.30;109781;1278;22187;-62
2023/09/27 07:09:44;;;;;;;39.10;18.00;;;;;;;16.23;100.00;101074.73;109810;1284;22866;-62
2023/09/27 07:12:15;;;;;;;30.20;15.40;;;;;;;16.33;100.00;101077.17;109796;1272;22175;-62
2023/09/27 07:14:46;;;;;;;32.70;15.10;;;;;;;16.43;100.00;101082.17;109803;1284;22778;-62
2023/09/27 07:17:18;;;;;;;29.60;15.30;;;;;;;16.52;100.00;101078.84;109789;1277;22378;-62
2023/09/27 07:19:53;;;;;;;28.00;14.90;;;;;;;16.62;100.00;101087.44;109799;1284;22205;-62
2023/09/27 07:22:23;;;;;;;29.90;15.00;;;;;;;16.73;100.00;101091.10;109782;1277;22249;-62
2023/09/27 07:24:54;;;;;;;25.00;13.30;;;;;;;16.80;100.00;101089.83;109806;1280;23471;-62
2023/09/27 07:27:25;;;;;;;22.80;12.90;;;;;;;16.89;100.00;101086.95;109798;1280;22907;-62
2023/09/27 07:29:56;;;;;;;27.20;12.10;;;;;;;16.96;100.00;101088.77;109759;1284;23290;-62
2023/09/27 07:32:28;;;;;;;24.90;11.30;;;;;;;17.05;100.00;101086.14;109794;1284;22197;-63
2023/09/27 07:34:59;;;;;;;29.70;13.40;;;;;;;17.13;100.00;101088.87;109789;1284;22391;-61
2023/09/27 07:37:32;;;;;;;28.30;14.30;;;;;;;17.22;100.00;101088.65;109779;1283;22951;-60
2023/09/27 07:40:10;;;;;;;26.20;10.90;;;;;;;17.31;100.00;101086.40;109777;1284;22343;-62
2023/09/27 07:42:43;;;;;;;23.70;9.50;;;;;;;17.41;100.00;101085.86;109799;1284;22203;-62
2023/09/27 07:45:16;;;;;;;20.60;9.90;;;;;;;17.50;100.00;101088.49;109814;1284;22224;-61
2023/09/27 07:47:47;;;;;;;22.00;10.80;;;;;;;17.61;100.00;101086.96;109802;1284;22504;-61
2023/09/27 07:50:19;;;;;;;20.70;8.80;;;;;;;17.69;100.00;101090.14;109783;1280;22269;-63
2023/09/27 07:52:49;;;;;;;25.50;9.30;;;;;;;17.75;100.00;101093.90;109801;1284;23022;-62
2023/09/27 07:55:21;;;;;;;21.10;8.90;;;;;;;17.83;100.00;101094.73;109794;1277;22216;-65
2023/09/27 07:57:52;;;;;;;23.60;10.20;;;;;;;17.88;100.00;101093.27;109798;1276;22178;-62
2023/09/27 08:00:28;;;;;;;19.40;8.30;;;;;;;17.96;100.00;101088.56;109797;1277;22150;-66
2023/09/27 08:03:00;;;;;;;21.50;7.70;;;;;;;18.02;100.00;101090.48;109782;1264;22142;-63
2023/09/27 08:05:31;;;;;;;23.20;7.90;;;;;;;18.09;100.00;101095.94;109790;1284;22180;-62
2023/09/27 08:08:03;;;;;;;20.50;8.70;;;;;;;18.17;100.00;101098.42;109793;1276;23097;-62
2023/09/27 08:10:43;;;;;;;20.60;7.50;;;;;;;18.24;100.00;101095.52;109803;1273;22157;-62
2023/09/27 08:13:15;;;;;;;19.90;8.00;;;;;;;18.34;100.00;101095.36;109822;1280;23257;-62
2023/09/27 08:15:50;;;;;;;19.00;7.30;;;;;;;18.42;100.00;101093.48;109796;1280;22161;-63
2023/09/27 08:18:21;;;;;;;17.90;7.00;;;;;;;18.49;100.00;101092.93;109737;1276;22133;-63
2023/09/27 08:20:54;;;;;;;24.00;7.40;;;;;;;18.58;100.00;101097.56;109788;1283;22209;-63
2023/09/27 08:23:26;;;;;;;18.40;7.50;;;;;;;18.67;100.00;101098.02;109755;1277;22216;-63
2023/09/27 08:25:57;;;;;;;16.90;7.00;;;;;;;18.72;100.00;101099.15;109758;1277;22228;-63
2023/09/27 08:28:29;;;;;;;18.00;7.00;;;;;;;18.81;100.00;101100.02;109798;1284;22191;-63
2023/09/27 08:31:04;;;;;;;19.10;6.30;;;;;;;18.92;100.00;101101.80;109787;1283;23170;-63
2023/09/27 08:33:35;;;;;;;20.50;6.80;;;;;;;19.04;100.00;101097.56;109787;1283;22978;-63
2023/09/27 08:36:08;;;;;;;20.20;6.50;;;;;;;19.16;100.00;101098.77;109781;1276;22159;-66
2023/09/27 08:38:39;;;;;;;17.50;6.10;;;;;;;19.28;100.00;101099.06;109790;1283;22172;-64
2023/09/27 08:41:11;;;;;;;16.20;6.00;;;;;;;19.33;100.00;101099.69;109769;1277;22187;-63
2023/09/27 08:43:42;;;;;;;22.60;6.80;;;;;;;19.37;100.00;101100.09;109805;1283;22192;-63
2023/09/27 08:46:13;;;;;;;14.70;5.70;;;;;;;19.42;99.85;101096.52;109766;1277;22347;-63
2023/09/27 08:48:45;;;;;;;17.80;6.60;;;;;;;19.51;99.48;101096.99;109804;1277;22261;-63
2023/09/27 08:51:16;;;;;;;20.70;7.00;;;;;;;19.57;99.38;101103.05;109777;1268;22144;-63
2023/09/27 08:53:47;;;;;;;17.60;6.60;;;;;;;19.61;98.83;101102.42;109800;1277;22286;-63
2023/09/27 08:56:20;;;;;;;16.10;6.10;;;;;;;19.67;98.53;101100.48;109799;1276;22861;-63
2023/09/27 08:58:52;;;;;;;19.30;6.00;;;;;;;19.75;98.66;101101.02;109786;1280;22335;-63
2023/09/27 09:01:24;;;;;;;21.50;6.40;;;;;;;19.82;98.14;101093.92;109778;1280;22171;-63
2023/09/27 09:03:56;;;;;;;17.10;5.40;;;;;;;19.88;97.79;101099.77;109767;1280;22293;-63
2023/09/27 09:06:29;;;;;;;13.40;4.90;;;;;;;19.97;97.49;101101.42;109791;1280;22834;-63
2023/09/27 09:09:10;;;;;;;17.70;4.70;;;;;;;20.07;97.45;101101.98;109807;1280;23169;-63
2023/09/27 09:11:47;;;;;;;14.90;4.60;;;;;;;20.20;96.49;101106.70;109802;1283;22162;-64
2023/09/27 09:14:22;;;;;;;13.60;4.40;;;;;;;20.31;95.50;101104.38;109790;1280;23194;-63
2023/09/27 09:16:55;;;;;;;15.00;4.60;;;;;;;20.41;95.11;101103.21;109783;1283;23155;-63
2023/09/27 09:19:27;;;;;;;11.80;4.50;;;;;;;20.53;94.44;101099.98;109804;1283;22250;-63
2023/09/27 09:22:00;;;;;;;13.50;4.20;;;;;;;20.62;93.96;101096.77;109726;1280;23544;-64
2023/09/27 09:24:32;;;;;;;16.30;4.10;;;;;;;20.72;93.75;101097.30;109762;1270;22555;-65
2023/09/27 09:27:11;;;;;;;14.30;4.20;;;;;;;20.81;93.67;101093.86;109756;1280;23162;-65
2023/09/27 09:29:49;;;;;;;18.90;4.80;;;;;;;20.91;93.27;101095.66;109779;1273;22148;-64
2023/09/27 09:32:22;;;;;;;10.60;5.30;;;;;;;20.96;92.13;101090.98;109788;1280;22240;-65
2023/09/27 09:34:54;;;;;;;14.90;4.10;;;;;;;21.01;91.76;101093.17;109834;1276;22147;-65
2023/09/27 09:37:27;;;;;;;14.60;4.00;;;;;;;21.05;91.16;101090.14;109780;1283;23315;-65
2023/09/27 09:40:19;;;;;;;16.60;3.90;;;;;;;21.15;90.29;101095.23;109796;1283;22243;-65
2023/09/27 09:42:52;;;;;;;12.50;3.80;;;;;;;21.25;89.50;101092.35;109804;1278;22169;-65
2023/09/27 09:45:24;;;;;;;17.80;4.50;;;;;;;21.33;89.20;101094.95;109809;1280;22284;-64
2023/09/27 09:47:56;;;;;;;17.20;4.10;;;;;;;21.39;89.34;101092.49;109806;1280;22579;-65
2023/09/27 09:50:29;;;;;;;13.60;3.50;;;;;;;21.43;88.36;101094.21;109779;1283;22175;-65
2023/09/27 09:53:01;;;;;;;12.00;3.10;;;;;;;21.49;87.67;101088.55;109796;1283;23412;-65
2023/09/27 09:55:34;;;;;;;15.60;4.20;;;;;;;21.56;87.11;101082.02;109801;1277;22327;-65
2023/09/27 09:58:14;;;;;;;12.40;3.60;;;;;;;21.65;86.53;101079.47;109774;1280;22823;-65
2023/09/27 10:00:49;;;;;;;14.00;3.20;;;;;;;21.71;85.94;101084.98;109802;1283;22152;-65
2023/09/27 10:03:22;;;;;;;17.50;3.70;;;;;;;21.76;85.35;101088.32;109794;1283;22126;-65
2023/09/27 10:05:54;;;;;;;13.30;2.60;;;;;;;21.81;84.22;101082.94;109806;1280;22151;-65
2023/09/27 10:08:28;;;;;;;19.40;3.40;;;;;;;21.93;83.93;101078.34;105657;1277;5455146;-65
2023/09/27 10:10:59;;;;;;;10.80;2.60;;;;;;;22.09;83.55;101076.52;109781;1273;22130;-65
2023/09/27 10:13:31;;;;;;;13.50;3.40;;;;;;;22.20;82.28;101071.54;109752;1284;22228;-65
2023/09/27 10:16:04;;;;;;;10.30;2.90;;;;;;;22.30;82.54;101071.27;109779;1277;22192;-65
2023/09/27 10:18:39;;;;;;;12.50;2.90;;;;;;;22.38;81.53;101069.70;109790;1277;22333;-65
2023/09/27 10:21:12;;;;;;;12.10;2.30;;;;;;;22.43;81.00;101071.58;109805;1277;22219;-65
2023/09/27 10:24:07;;;;;;;14.10;2.90;;;;;;;22.44;80.00;101070.42;109793;1284;22950;-66
2023/09/27 10:26:39;;;;;;;12.30;3.00;;;;;;;22.47;79.67;101072.49;109791;1284;22169;-65
2023/09/27 10:29:17;;;;;;;10.00;2.50;;;;;;;22.48;78.59;101068.19;109783;1283;22154;-66
2023/09/27 10:32:19;;;;;;;13.70;2.80;;;;;;;22.53;77.43;101064.79;109755;1284;22335;-65
2023/09/27 10:35:21;;;;;;;10.10;2.70;;;;;;;22.58;76.51;101059.45;109441;1280;22242;-65
2023/09/27 10:38:08;;;;;;;13.20;2.90;;;;;;;22.60;76.38;101054.56;109482;1286;23410;-65
2023/09/27 10:40:46;;;;;;;12.40;3.40;;;;;;;22.63;75.80;101050.33;109346;1289;22295;-65
2023/09/27 10:43:40;;;;;;;13.00;2.90;;;;;;;22.66;74.68;101045.70;109354;1286;23097;-64
2023/09/27 10:46:12;;;;;;;11.20;2.80;;;;;;;22.76;73.71;101042.34;109349;1286;22914;-63
2023/09/27 10:48:43;;;;;;;7.80;2.30;;;;;;;22.89;74.39;101037.94;109344;1290;22228;-63
2023/09/27 10:51:13;;;;;;;11.80;2.80;;;;;;;22.93;73.94;101035.94;109365;1283;22194;-68
2023/09/27 10:53:45;;;;;;;8.80;2.30;;;;;;;22.96;73.51;101031.07;109314;1290;22277;-63
2023/09/27 10:56:17;;;;;;;10.90;3.10;;;;;;;23.04;73.07;101029.88;109316;1290;22246;-63
2023/09/27 10:58:49;;;;;;;10.20;2.30;;;;;;;23.11;72.56;101028.60;109357;1290;23528;-65
2023/09/27 11:01:23;;;;;;;8.10;2.20;;;;;;;23.14;71.48;101023.26;109354;1290;22299;-64
2023/09/27 11:04:01;;;;;;;13.20;2.80;;;;;;;23.22;70.52;101019.67;109369;1289;22241;-63
2023/09/27 11:06:32;;;;;;;10.40;2.00;;;;;;;23.34;69.78;101016.67;109337;1290;22392;-63
2023/09/27 11:09:08;;;;;;;13.20;2.60;;;;;;;23.38;69.33;101012.41;109425;1277;22350;-63
2023/09/27 11:11:39;;;;;;;7.90;1.90;;;;;;;23.41;68.51;101009.02;109673;1274;22185;-63
2023/09/27 11:14:10;;;;;;;11.20;2.70;;;;;;;23.48;67.95;101004.66;109641;1280;22931;-63
2023/09/27 11:16:41;;;;;;;10.60;2.10;;;;;;;23.53;66.55;101004.19;109567;1279;22168;-64
2023/09/27 11:19:11;;;;;;;12.10;2.30;;;;;;;23.65;65.12;101003.81;109656;1282;22135;-63
2023/09/27 11:21:45;;;;;;;8.50;2.00;;;;;;;23.75;64.41;101003.38;109649;1285;22110;-63
2023/09/27 11:24:16;;;;;;;8.70;2.00;;;;;;;23.80;63.94;100999.73;109695;1285;22186;-62
2023/09/27 11:26:47;;;;;;;9.30;2.50;;;;;;;23.85;63.64;100994.75;109654;1285;22199;-63